• Join FlightAware (Why Join?)
  • Login
  • US Flag 
10:36PM EDT


 

Airport Tracker/Info


-or-


 

Live Flight TrackerFlight Track Log ✈ N70AG ✈ 03-Jul-2013 ✈ KSAN - KRNO

Flight Track Log - Related Links

Times and Time Zones

All times are in EDT time to prevent confusion due to time zone crossing. See the N70AG flight status page for this flight to view local times or setup timezone preferences in your user account.

Time Position Orientation Groundspeed Altitude Reporting Facility
EDT Latitude Longitude Course Direction KTS MPH feet Rate Location/Type
02:26PM 32.7472 -117.2364 309° West 204 235 2,500  Level Los Angeles Center
02:27PM 32.7933 -117.3072 308° West 234 269 6,400 3,480 Climbing Los Angeles Center
02:28PM 32.8439 -117.3778 310° West 271 312 9,700 2,520 Climbing Los Angeles Center
02:29PM 32.9044 -117.4589 312° West 324 373 11,700 2,400 Climbing Los Angeles Center
02:30PM 32.9742 -117.5536 311° West 370 426 14,700 2,880 Climbing Los Angeles Center
02:31PM 33.0461 -117.6514 311° West 387 445 17,700 2,700 Climbing Los Angeles Center
02:32PM 33.1735 -117.8436 309° West  Level FlightAware Approximate
02:32PM 33.1219 -117.7558 311° West 407 468 20,400  Level Los Angeles Center
02:33PM 33.2197 -117.8881 311° West 436 502 23,500 2,640 Climbing Los Angeles Center
02:35PM 33.3078 -117.9989 314° West 452 520 25,900 1,980 Climbing Los Angeles Center
02:36PM 33.4147 -118.0917 324° Northwest 476 548 27,700 2,160 Climbing Los Angeles Center
02:37PM 33.5375 -118.1422 341° North 469 540 30,400 2,220 Climbing Los Angeles Center
02:38PM 33.6611 -118.1797 346° North 462 532 32,300 1,920 Climbing Los Angeles Center
02:39PM 33.8128 -118.2242 346° North 484 557 34,500 1,740 Climbing Los Angeles Center
02:40PM 33.9358 -118.2672 344° North 475 547 36,000 660 Climbing Los Angeles Center
02:41PM 34.0675 -118.3103 345° North 491 565 36,000  Level Los Angeles Center
02:42PM 34.2361 -118.3647 345° North 522 601 36,000  Level Los Angeles Center
02:43PM 34.4053 -118.4197 345° North 526 605 36,000  Level Los Angeles Center
02:44PM 34.5458 -118.4647 345° North 524 603 36,000  Level Los Angeles Center
02:45PM 34.6878 -118.5117 345° North 529 609 36,000  Level Los Angeles Center
02:46PM 34.8286 -118.5581 345° North 527 606 36,000  Level Los Angeles Center
02:47PM 34.9742 -118.6047 345° North 530 610 36,000  Level Los Angeles Center
02:48PM 35.1175 -118.6392 349° North 528 608 36,000  Level Los Angeles Center
02:49PM 35.2922 -118.6772 350° North 534 615 36,000  Level Los Angeles Center
02:50PM 35.4364 -118.7078 350° North 530 610 36,000  Level Los Angeles Center
02:51PM 35.5731 -118.7419 349° North 516 594 36,000  Level Los Angeles Center
02:52PM 35.7186 -118.7717 351° North 527 606 36,000  Level Los Angeles Center
02:53PM 35.8622 -118.8031 350° North 528 608 36,000  Level Los Angeles Center
02:54PM 36.0347 -118.8419 350° North 526 605 36,000  Level Los Angeles Center
02:56PM 36.2336 -118.8858 350° North 526 605 36,000  Level Oakland Center
02:57PM 36.3764 -118.9183 350° North 525 604 36,000  Level Oakland Center
02:58PM 36.5206 -118.9506 350° North 526 605 36,000  Level Oakland Center
02:59PM 36.6625 -118.9808 350° North 524 603 36,000 -60 Level Oakland Center
03:00PM 36.8067 -119.0131 350° North 526 605 35,900 -840 Descending Oakland Center
03:01PM 36.9786 -119.0519 350° North 527 606 34,300 -1,380 Descending Oakland Center
03:02PM 37.1231 -119.0858 349° North 531 611 33,100 -840 Descending Oakland Center
03:03PM 37.2664 -119.1192 350° North 527 606 32,600 -660 Descending Oakland Center
03:04PM 37.4006 -119.1489 350° North 496 571 31,800 -1,320 Descending Oakland Center
03:05PM 37.5361 -119.1800 350° North 495 570 30,000 -1,620 Descending Oakland Center
03:06PM 37.6961 -119.2194 349° North 527 606 28,600 -1,680 Descending Oakland Center
03:07PM 37.8386 -119.2525 350° North 524 603 26,600 -2,040 Descending Oakland Center
03:08PM 37.9739 -119.2825 350° North 501 577 24,500 -1,320 Descending Oakland Center
03:09PM 38.1047 -119.3139 349° North 484 557 24,000 -300 Descending Oakland Center
03:10PM 38.2419 -119.3464 349° North 482 555 24,000  Level Oakland Center
03:11PM 38.3753 -119.3786 349° North 486 559 24,000 -420 Level Oakland Center
03:12PM 38.5069 -119.4086 350° North 481 554 23,200 -900 Descending Oakland Center
03:13PM 38.6361 -119.4400 349° North 472 543 22,200 -1,020 Descending Oakland Center
03:14PM 38.7636 -119.4694 350° North 466 536 21,200 -1,140 Descending Oakland Center
03:15PM 38.9133 -119.5061 349° North 455 524 19,900 -1,440 Descending Oakland Center
03:16PM 39.0369 -119.5358 349° North 451 519 18,300 -1,500 Descending Oakland Center
03:17PM 39.1564 -119.5650 349° North 439 505 16,900 -1,620 Descending Oakland Center
03:18PM 39.2731 -119.5928 350° North 428 493 15,100 -1,800 Descending Oakland Center
03:19PM 39.3769 -119.6189 349° North 392 451 13,300 -1,140 Descending Oakland Center
03:20PM 39.4667 -119.6333 353° North 323 372 13,000 -360 Descending Northern Cal TRACON
03:21PM 39.5500 -119.6500 351° North 272 313 12,600 -900 Descending Northern Cal TRACON
03:22PM 39.6000 -119.6500 360° North 254 292 11,200 -1,380 Descending Northern Cal TRACON
03:23PM 39.6500 -119.7000 322° Northwest 234 269 10,000 -1,560 Descending Northern Cal TRACON
03:24PM 39.6333 -119.7667 252° West 188 216 8,100 -1,800 Descending Northern Cal TRACON
03:25PM 39.5833 -119.7667 180° South 158 182 6,400 -1,500 Descending Northern Cal TRACON
03:26PM 39.5333 -119.7667 180° South 146 168 5,100 -1,320 Descending Northern Cal TRACON
03:28PM 39.4991 -119.7681 186° South  Level Estimated
03:35PM 39.4991 -119.7681 186° South  Level Estimated